Time;durP1;ratioP1;P1;durP2;ratioP2;P2;SDS_P1;SDS_P2;PMS_P1;PMS_P2;Temp;Humidity;BMP_temperature;BMP_pressure;BME280_temperature;BME280_humidity;BME280_pressure;Samples;Min_cycle;Max_cycle;Signal;HPM_P1;HPM_P2
2022/01/12 00:00:15;;;;;;;6.93;5.93;;;-3.30;96.30;;;;;;4898194;29;20188;-75
2022/01/12 00:02:41;;;;;;;9.20;6.53;;;-3.10;96.30;;;;;;4898128;29;20437;-76
2022/01/12 00:05:07;;;;;;;7.60;5.80;;;-3.00;96.30;;;;;;4897509;29;20924;-74
2022/01/12 00:07:32;;;;;;;7.80;6.10;;;-3.00;96.30;;;;;;4897903;29;20185;-74
2022/01/12 00:09:57;;;;;;;13.00;7.07;;;-2.90;96.30;;;;;;4903131;29;20180;-77
2022/01/12 00:12:23;;;;;;;10.77;7.10;;;-2.90;96.30;;;;;;4897611;29;20231;-76
2022/01/12 00:14:48;;;;;;;10.13;7.00;;;-2.90;96.30;;;;;;4909236;29;20224;-74
2022/01/12 00:17:14;;;;;;;10.90;6.93;;;-2.80;96.30;;;;;;4916882;29;20259;-74
2022/01/12 00:19:39;;;;;;;12.10;7.30;;;-2.80;96.30;;;;;;4916770;29;20220;-75
2022/01/12 00:22:05;;;;;;;9.20;6.67;;;-2.80;96.30;;;;;;4916699;29;20236;-74
2022/01/12 00:24:52;;;;;;;8.70;6.60;;;-2.80;96.30;;;;;;4911142;29;20193;-74
2022/01/12 00:33:10;;;;;;;8.87;6.10;;;-2.70;96.30;;;;;;4862660;29;20470;-74
2022/01/12 00:35:36;;;;;;;9.10;6.73;;;-2.60;96.30;;;;;;4907211;29;20424;-79
2022/01/12 00:38:02;;;;;;;11.67;6.80;;;-2.50;96.30;;;;;;4916388;29;20785;-77
2022/01/12 00:40:28;;;;;;;8.80;7.53;;;-2.50;96.30;;;;;;4916428;29;20938;-79
2022/01/12 00:42:53;;;;;;;9.20;7.47;;;-2.50;96.30;;;;;;4915701;29;20184;-79
2022/01/12 00:45:20;;;;;;;8.03;6.50;;;-2.60;96.30;;;;;;4916277;29;20168;-74
2022/01/12 00:47:46;;;;;;;9.00;6.30;;;-2.60;96.30;;;;;;4899333;29;20580;-74
2022/01/12 00:50:11;;;;;;;9.93;6.60;;;-2.60;96.30;;;;;;4916360;29;20416;-73
2022/01/12 00:52:37;;;;;;;12.23;6.53;;;-2.60;96.30;;;;;;4916045;29;20256;-79
2022/01/12 00:55:04;;;;;;;14.83;7.60;;;-2.60;96.30;;;;;;4898987;29;20303;-75
2022/01/12 00:57:30;;;;;;;10.17;6.70;;;-2.60;96.30;;;;;;4916206;29;20164;-74
2022/01/12 00:59:56;;;;;;;11.60;6.87;;;-2.60;96.30;;;;;;4916166;29;20420;-74
2022/01/12 05:00:36;;;;;;;10.30;4.00;;;-1.70;96.30;;;;;;5789838;23;20566;-77
2022/01/12 05:13:46;;;;;;;7.60;4.33;;;-1.70;96.30;;;;;;4935586;29;20567;-73
2022/01/12 05:16:12;;;;;;;6.43;5.00;;;-1.70;96.30;;;;;;4935458;29;20457;-73
2022/01/12 05:18:39;;;;;;;11.70;5.70;;;-1.80;96.30;;;;;;4935493;29;20415;-73
2022/01/12 05:21:05;;;;;;;8.27;4.97;;;-1.80;96.30;;;;;;4918963;29;20214;-73
2022/01/12 05:23:32;;;;;;;10.33;4.83;;;-1.80;96.30;;;;;;4917785;29;20945;-73
2022/01/12 05:25:58;;;;;;;10.70;6.60;;;-1.70;96.30;;;;;;4935319;29;20411;-73
2022/01/12 05:28:25;;;;;;;6.13;4.80;;;-1.70;96.30;;;;;;4918210;29;20423;-73
2022/01/12 07:03:35;;;;;;;7.17;5.77;;;-2.00;96.30;;;;;;4045109;23;20776;-76
2022/01/12 07:06:01;;;;;;;6.27;5.07;;;-1.90;96.30;;;;;;4916078;29;20496;-75
2022/01/12 07:08:27;;;;;;;7.67;5.60;;;-2.00;96.30;;;;;;4917519;29;20425;-76
2022/01/12 07:10:52;;;;;;;7.10;5.17;;;-2.00;96.30;;;;;;4917968;29;20204;-76
2022/01/12 07:13:18;;;;;;;6.97;5.27;;;-2.10;96.30;;;;;;4916213;29;20185;-76
2022/01/12 07:15:44;;;;;;;9.03;5.70;;;-2.10;96.30;;;;;;4898926;29;20196;-76
2022/01/12 07:18:10;;;;;;;11.90;6.70;;;-2.10;96.30;;;;;;4897764;29;20239;-77
2022/01/12 07:20:36;;;;;;;11.00;5.33;;;-2.20;96.30;;;;;;4897575;29;20492;-76
2022/01/12 07:23:02;;;;;;;7.73;4.87;;;-2.10;96.30;;;;;;4898939;29;20425;-76
2022/01/12 07:25:27;;;;;;;10.50;6.83;;;-2.10;96.30;;;;;;4898699;29;20217;-76
2022/01/12 07:27:53;;;;;;;16.33;5.73;;;-2.10;96.30;;;;;;4898828;29;20496;-76
2022/01/12 07:30:21;;;;;;;9.97;6.30;;;-2.10;96.30;;;;;;4898966;29;20196;-77
2022/01/12 07:32:47;;;;;;;9.57;6.23;;;-2.10;96.30;;;;;;4897701;29;20477;-76
2022/01/12 07:35:12;;;;;;;9.20;6.60;;;-2.10;96.30;;;;;;4907974;29;20431;-76
2022/01/12 07:37:38;;;;;;;11.10;7.20;;;-2.10;96.30;;;;;;4920559;29;20432;-76
2022/01/12 07:40:04;;;;;;;10.50;6.37;;;-2.10;96.30;;;;;;4919147;29;20193;-77
2022/01/12 07:42:29;;;;;;;9.90;6.30;;;-2.10;96.30;;;;;;4918350;29;20215;-76
2022/01/12 07:44:59;;;;;;;11.20;6.30;;;-2.10;96.30;;;;;;4917236;29;20487;-72
2022/01/12 07:47:28;;;;;;;15.07;8.60;;;-2.10;96.30;;;;;;4917938;29;20259;-73
2022/01/12 07:49:55;;;;;;;14.40;9.00;;;-2.00;96.30;;;;;;4917776;29;20511;-72
2022/01/12 07:52:20;;;;;;;17.27;10.83;;;-1.90;96.30;;;;;;4920605;29;20464;-76
2022/01/12 07:54:46;;;;;;;15.60;8.70;;;-1.90;96.30;;;;;;4905074;29;20425;-74
2022/01/12 07:57:11;;;;;;;13.27;8.60;;;-1.80;96.30;;;;;;4899849;29;20220;-73
2022/01/12 07:59:37;;;;;;;11.90;8.27;;;-1.70;96.30;;;;;;4898259;29;20260;-76
2022/01/12 08:02:03;;;;;;;17.10;8.77;;;-1.40;96.30;;;;;;4911301;29;20204;-77
2022/01/12 08:04:28;;;;;;;10.87;8.33;;;-1.30;96.30;;;;;;4917038;29;20297;-77
2022/01/12 08:06:54;;;;;;;13.40;8.30;;;-1.10;96.30;;;;;;4917386;29;20188;-77
2022/01/12 08:09:19;;;;;;;12.43;7.60;;;-1.00;96.30;;;;;;4910807;29;20259;-77
2022/01/12 08:11:45;;;;;;;12.07;7.77;;;-1.00;96.30;;;;;;4896597;29;20219;-76
2022/01/12 08:14:10;;;;;;;10.70;7.53;;;-1.00;96.30;;;;;;4897969;29;20189;-78
2022/01/12 08:16:36;;;;;;;11.80;7.10;;;-0.90;96.30;;;;;;4898093;29;20269;-78
2022/01/12 08:19:01;;;;;;;8.00;6.17;;;-1.00;96.30;;;;;;4896996;29;20296;-77
2022/01/12 08:21:27;;;;;;;10.80;6.47;;;-1.00;96.30;;;;;;4898439;29;20193;-77
2022/01/12 08:23:53;;;;;;;12.33;6.63;;;-1.10;96.30;;;;;;4896234;29;20212;-72
2022/01/12 08:26:18;;;;;;;12.20;7.20;;;-1.00;96.30;;;;;;4896399;29;20248;-76
2022/01/12 08:28:44;;;;;;;8.03;5.07;;;-0.90;96.30;;;;;;4897866;29;20189;-76
2022/01/12 08:31:10;;;;;;;8.50;5.30;;;-0.90;96.30;;;;;;4897619;29;20208;-77
2022/01/12 08:33:35;;;;;;;6.10;4.47;;;-0.70;96.30;;;;;;4896256;29;20429;-75
2022/01/12 08:36:01;;;;;;;7.10;4.70;;;-0.70;96.30;;;;;;4913057;29;20218;-77
2022/01/12 08:38:26;;;;;;;15.27;8.10;;;-0.60;96.30;;;;;;4916567;29;20180;-76
2022/01/12 08:40:52;;;;;;;17.00;10.70;;;-0.50;96.30;;;;;;4916200;29;20196;-77
2022/01/12 08:43:18;;;;;;;9.30;7.13;;;-0.60;96.30;;;;;;4914861;29;20180;-76
2022/01/12 08:45:44;;;;;;;9.17;5.90;;;-0.50;96.30;;;;;;4916444;29;20825;-76
2022/01/12 08:48:09;;;;;;;10.57;5.00;;;-0.50;96.30;;;;;;4916212;29;20184;-76
2022/01/12 08:50:35;;;;;;;7.27;4.07;;;-0.50;96.30;;;;;;4927389;29;20579;-76
2022/01/12 08:53:00;;;;;;;8.90;3.97;;;-0.40;96.30;;;;;;4897251;29;20212;-76
2022/01/12 08:55:26;;;;;;;7.47;5.00;;;-0.40;96.30;;;;;;4896986;29;20173;-77
2022/01/12 08:57:52;;;;;;;6.53;3.90;;;-0.30;96.30;;;;;;4895995;29;20192;-76
2022/01/12 09:00:19;;;;;;;6.03;5.07;;;-0.20;96.30;;;;;;4895995;29;20245;-77
2022/01/12 09:02:45;;;;;;;5.37;3.50;;;-0.30;96.30;;;;;;4897224;29;20452;-75
2022/01/12 09:05:11;;;;;;;8.27;4.03;;;-0.30;96.30;;;;;;4896952;29;20922;-76
2022/01/12 09:07:38;;;;;;;6.77;4.60;;;-0.30;96.30;;;;;;4897263;29;20477;-76
2022/01/12 09:10:05;;;;;;;5.17;4.00;;;-0.20;96.30;;;;;;4908963;29;20529;-76
2022/01/12 09:12:30;;;;;;;7.80;4.53;;;-0.10;96.30;;;;;;4898819;29;20468;-77
2022/01/12 09:14:56;;;;;;;6.70;4.20;;;0.00;96.30;;;;;;4915819;29;20412;-77
2022/01/12 09:17:23;;;;;;;7.10;4.63;;;0.10;96.30;;;;;;4899106;29;20191;-77
2022/01/12 09:19:50;;;;;;;6.10;4.00;;;0.20;96.30;;;;;;4916248;29;20194;-77
2022/01/12 09:22:16;;;;;;;8.53;4.63;;;0.30;96.30;;;;;;4915975;29;20452;-76
2022/01/12 09:24:42;;;;;;;5.80;3.97;;;0.40;96.30;;;;;;4915679;29;20456;-75
2022/01/12 09:27:07;;;;;;;8.40;5.10;;;0.50;96.30;;;;;;4899958;29;20240;-77
2022/01/12 09:29:33;;;;;;;7.00;4.53;;;0.60;96.30;;;;;;4914582;29;20936;-77
2022/01/12 09:31:59;;;;;;;5.70;4.10;;;0.70;96.30;;;;;;4915868;29;20275;-76
2022/01/12 09:34:24;;;;;;;9.57;5.37;;;0.70;96.30;;;;;;4913693;29;20636;-77
2022/01/12 09:36:50;;;;;;;11.80;4.80;;;0.70;96.30;;;;;;4897064;29;20219;-76
2022/01/12 09:39:15;;;;;;;5.07;3.13;;;0.80;96.30;;;;;;4895492;29;20184;-77
2022/01/12 09:41:41;;;;;;;5.90;4.67;;;0.90;96.30;;;;;;4896824;29;20305;-76
2022/01/12 09:44:06;;;;;;;6.43;3.90;;;0.90;96.30;;;;;;4896622;29;20184;-76
2022/01/12 09:46:32;;;;;;;11.07;4.77;;;1.00;96.30;;;;;;4896855;29;20188;-75
2022/01/12 09:48:59;;;;;;;7.53;3.90;;;1.00;96.30;;;;;;4896845;29;20212;-76
2022/01/12 09:51:25;;;;;;;6.80;4.23;;;1.20;96.30;;;;;;4895130;29;20296;-77
2022/01/12 09:53:52;;;;;;;8.40;4.30;;;1.10;96.30;;;;;;4895093;29;20445;-77
2022/01/12 09:56:23;;;;;;;7.43;4.30;;;1.00;96.30;;;;;;4896485;29;20411;-77
2022/01/12 09:58:54;;;;;;;5.37;3.60;;;0.90;96.30;;;;;;4896738;29;20417;-76
2022/01/12 10:01:30;;;;;;;5.63;3.83;;;0.90;96.30;;;;;;4897964;29;20445;-75
2022/01/12 10:04:09;;;;;;;4.40;3.57;;;0.80;96.30;;;;;;4899954;29;20439;-76
2022/01/12 10:06:45;;;;;;;6.40;3.80;;;0.80;96.30;;;;;;4900281;29;20409;-75
2022/01/12 10:09:12;;;;;;;5.20;3.43;;;0.90;96.30;;;;;;4904065;29;20427;-74
2022/01/12 10:11:51;;;;;;;9.00;4.83;;;0.90;96.30;;;;;;4918919;29;20551;-76
2022/01/12 10:14:16;;;;;;;5.93;4.07;;;1.00;96.30;;;;;;4918517;29;20483;-75
2022/01/12 10:16:53;;;;;;;6.83;4.27;;;1.30;96.30;;;;;;4918974;29;20964;-75
2022/01/12 10:19:30;;;;;;;9.97;3.63;;;1.50;96.30;;;;;;4918974;29;20307;-74
2022/01/12 10:21:58;;;;;;;6.53;4.67;;;1.60;96.30;;;;;;4918754;29;20452;-75
2022/01/12 10:24:24;;;;;;;6.73;3.90;;;1.70;96.30;;;;;;4918551;29;20412;-74
2022/01/12 10:26:51;;;;;;;4.30;3.60;;;1.80;96.30;;;;;;4917392;29;20424;-76
2022/01/12 10:29:22;;;;;;;8.20;4.43;;;1.60;96.30;;;;;;4917510;29;20432;-76
2022/01/12 10:31:58;;;;;;;7.37;4.50;;;1.50;96.30;;;;;;4918540;29;20467;-76
2022/01/12 10:34:29;;;;;;;6.60;4.50;;;1.60;96.30;;;;;;4918107;29;20904;-75
2022/01/12 10:36:56;;;;;;;5.30;3.70;;;1.60;96.30;;;;;;4898434;29;20418;-76
2022/01/12 10:39:27;;;;;;;8.53;4.53;;;1.50;96.30;;;;;;4899873;29;20414;-75
2022/01/12 10:42:05;;;;;;;7.93;4.77;;;1.60;96.30;;;;;;4899588;29;20849;-76
2022/01/12 10:44:36;;;;;;;10.03;4.90;;;1.50;96.30;;;;;;4898229;29;20424;-75
2022/01/12 10:47:23;;;;;;;10.00;4.90;;;1.40;96.30;;;;;;4899764;29;20417;-76
2022/01/12 10:49:55;;;;;;;12.03;4.73;;;1.40;96.30;;;;;;4899669;29;20556;-76
2022/01/12 10:52:26;;;;;;;6.40;4.73;;;1.60;96.30;;;;;;4906140;29;21012;-74
2022/01/12 10:54:54;;;;;;;6.77;4.87;;;1.50;96.30;;;;;;4918043;29;20912;-76
2022/01/12 10:57:26;;;;;;;9.30;5.60;;;1.60;96.30;;;;;;4918276;29;20987;-76
2022/01/12 11:00:19;;;;;;;7.13;5.37;;;1.70;96.30;;;;;;4904149;29;20569;-76
2022/01/12 11:02:53;;;;;;;8.00;5.30;;;1.80;96.30;;;;;;4899177;29;20432;-73
2022/01/12 11:05:21;;;;;;;8.27;5.20;;;2.20;96.30;;;;;;4896344;29;20440;-74
2022/01/12 11:07:48;;;;;;;5.80;4.57;;;2.20;96.30;;;;;;4898489;29;20425;-75
2022/01/12 11:10:14;;;;;;;8.27;5.00;;;2.10;96.30;;;;;;4898977;29;20436;-74
2022/01/12 11:12:40;;;;;;;8.47;5.13;;;2.00;96.30;;;;;;4898122;29;20520;-75
2022/01/12 11:15:13;;;;;;;8.23;4.73;;;2.00;96.30;;;;;;4899270;29;20504;-76
2022/01/12 11:17:40;;;;;;;6.63;4.87;;;2.00;96.30;;;;;;4899322;29;20649;-74
2022/01/12 12:35:36;;;;;;;8.00;4.90;;;2.90;96.30;;;;;;4485322;23;20529;-73
2022/01/12 12:38:10;;;;;;;6.47;4.27;;;2.80;96.30;;;;;;4952094;29;20427;-72
2022/01/12 13:45:29;;;;;;;6.47;5.50;;;2.30;96.30;;;;;;5536509;23;20498;-71
2022/01/12 13:48:00;;;;;;;9.70;6.37;;;2.20;96.30;;;;;;4919460;29;20568;-72
2022/01/12 13:50:35;;;;;;;8.60;5.90;;;2.20;96.30;;;;;;4919486;29;20419;-72
2022/01/12 13:53:02;;;;;;;7.07;5.20;;;2.10;96.30;;;;;;4919346;29;20478;-71
2022/01/12 13:55:27;;;;;;;8.93;5.57;;;2.10;96.30;;;;;;4914328;29;20416;-71
2022/01/12 13:57:57;;;;;;;8.70;5.70;;;2.20;96.30;;;;;;4900378;29;20424;-72
2022/01/12 14:00:22;;;;;;;11.43;6.23;;;2.20;96.30;;;;;;4883583;29;20180;-71
2022/01/12 14:02:48;;;;;;;7.80;6.00;;;2.20;96.30;;;;;;4884649;29;20454;-73
2022/01/12 14:05:19;;;;;;;8.47;6.33;;;2.20;96.30;;;;;;4918435;29;20238;-72
2022/01/12 14:08:00;;;;;;;8.90;5.93;;;2.20;96.30;;;;;;4919180;29;20589;-71
2022/01/12 14:10:27;;;;;;;10.67;6.63;;;2.30;96.30;;;;;;4903170;29;20425;-72
2022/01/12 14:12:54;;;;;;;9.60;5.90;;;2.30;96.30;;;;;;4899966;29;20460;-72
2022/01/12 14:15:25;;;;;;;7.03;5.40;;;2.40;96.30;;;;;;4900178;29;20501;-71
2022/01/12 14:17:51;;;;;;;6.67;4.87;;;2.30;96.30;;;;;;4900631;29;20405;-71
2022/01/12 14:20:23;;;;;;;11.80;6.40;;;2.30;96.30;;;;;;4918857;29;20419;-72
2022/01/12 14:22:56;;;;;;;8.33;6.43;;;2.20;96.30;;;;;;4918886;29;20483;-71
2022/01/12 14:25:33;;;;;;;11.20;6.10;;;2.20;96.30;;;;;;4918066;29;20420;-71
2022/01/12 14:27:58;;;;;;;9.27;6.43;;;2.10;96.30;;;;;;4918805;29;20457;-71
2022/01/12 14:30:24;;;;;;;10.70;6.30;;;2.10;96.30;;;;;;4918760;29;20446;-71
2022/01/12 14:32:50;;;;;;;9.97;7.30;;;2.00;96.30;;;;;;4918665;29;20200;-71
2022/01/12 14:35:23;;;;;;;9.20;6.40;;;1.90;96.30;;;;;;4911193;29;20679;-71
2022/01/12 14:37:50;;;;;;;9.10;6.57;;;1.90;96.30;;;;;;4899874;29;20940;-71
2022/01/12 14:40:16;;;;;;;10.67;7.20;;;1.80;96.30;;;;;;4899586;29;20413;-72
2022/01/12 14:42:42;;;;;;;11.40;6.90;;;1.80;96.30;;;;;;4899731;29;20417;-72
2022/01/12 14:45:15;;;;;;;11.37;6.70;;;1.70;96.30;;;;;;4882504;29;20666;-71
2022/01/12 14:47:41;;;;;;;13.53;7.30;;;1.70;96.30;;;;;;4899040;29;20421;-71
2022/01/12 14:50:08;;;;;;;11.70;6.10;;;1.60;96.30;;;;;;4882578;29;20425;-71
2022/01/12 14:52:35;;;;;;;10.03;6.57;;;1.60;96.30;;;;;;4899477;29;20476;-71
2022/01/12 14:55:02;;;;;;;9.10;5.80;;;1.50;96.30;;;;;;4899353;29;20501;-71
2022/01/12 14:57:28;;;;;;;16.57;7.60;;;1.50;96.30;;;;;;4882472;29;20901;-72
2022/01/12 14:59:53;;;;;;;10.23;6.67;;;1.50;96.30;;;;;;4899463;29;20541;-71
2022/01/12 15:02:19;;;;;;;10.60;6.80;;;1.50;96.30;;;;;;4899086;29;20314;-71
2022/01/12 15:04:45;;;;;;;9.93;6.83;;;1.40;96.30;;;;;;4899043;29;20547;-72
2022/01/12 15:07:10;;;;;;;9.47;6.83;;;1.40;96.30;;;;;;4914324;29;20692;-71
2022/01/12 15:09:36;;;;;;;11.40;7.53;;;1.30;96.30;;;;;;4915763;29;20195;-71
2022/01/12 15:12:02;;;;;;;9.43;6.30;;;1.30;96.30;;;;;;4918141;29;20196;-70
2022/01/12 15:14:43;;;;;;;9.47;7.67;;;1.20;96.30;;;;;;4917766;29;20263;-70
2022/01/12 15:17:09;;;;;;;13.70;7.30;;;1.20;96.30;;;;;;4918029;29;20389;-72
2022/01/12 15:19:36;;;;;;;12.07;6.63;;;1.10;96.30;;;;;;4917917;29;20487;-74
2022/01/12 15:22:01;;;;;;;17.93;6.60;;;1.00;96.30;;;;;;4917718;29;20971;-73
2022/01/12 15:24:29;;;;;;;11.47;7.20;;;1.00;96.30;;;;;;4917542;29;20416;-71
2022/01/12 15:26:55;;;;;;;13.30;6.57;;;1.00;96.30;;;;;;4917637;29;20169;-72
2022/01/12 15:29:21;;;;;;;9.60;6.30;;;0.90;96.30;;;;;;4917722;29;20424;-72
2022/01/12 15:31:46;;;;;;;11.40;6.70;;;0.90;96.30;;;;;;4913097;29;20465;-72
2022/01/12 15:34:12;;;;;;;11.93;7.40;;;0.80;96.30;;;;;;4917106;29;20476;-71
2022/01/12 15:36:37;;;;;;;11.10;7.47;;;0.80;96.30;;;;;;4899855;29;20638;-72
2022/01/12 15:39:06;;;;;;;12.70;6.83;;;0.80;96.30;;;;;;4898763;29;20182;-73
2022/01/12 15:41:32;;;;;;;11.60;6.67;;;0.80;96.30;;;;;;4899759;29;20193;-72
2022/01/12 15:43:57;;;;;;;10.83;6.63;;;0.80;96.30;;;;;;4909314;29;20951;-71
2022/01/12 15:46:23;;;;;;;13.30;7.40;;;0.80;96.30;;;;;;4916588;29;20652;-72
2022/01/12 15:48:48;;;;;;;11.23;7.50;;;0.80;96.30;;;;;;4915703;29;20231;-72
2022/01/12 15:51:14;;;;;;;10.40;7.15;;;0.80;96.30;;;;;;4917297;29;20204;-72
2022/01/12 15:53:39;;;;;;;9.87;5.83;;;0.80;96.30;;;;;;4916551;29;20207;-72
2022/01/12 15:56:06;;;;;;;8.73;6.03;;;0.90;96.30;;;;;;4900126;29;20180;-71
2022/01/12 15:58:32;;;;;;;10.23;7.30;;;0.90;96.30;;;;;;4900384;29;20211;-70
2022/01/12 16:00:58;;;;;;;9.73;7.43;;;0.90;96.30;;;;;;4881453;29;20945;-70
2022/01/12 16:03:23;;;;;;;11.07;7.50;;;0.90;96.30;;;;;;4897791;29;20424;-71
2022/01/12 16:05:51;;;;;;;14.43;8.50;;;0.90;96.30;;;;;;4898091;29;20190;-72
2022/01/12 16:08:16;;;;;;;15.67;7.63;;;0.90;96.30;;;;;;4898297;29;20642;-71
2022/01/12 16:10:43;;;;;;;12.10;6.87;;;0.90;96.30;;;;;;4898416;29;20435;-71
2022/01/12 16:13:09;;;;;;;10.33;7.80;;;0.90;96.30;;;;;;4897606;29;20203;-71
2022/01/12 16:15:37;;;;;;;12.37;6.90;;;0.90;96.30;;;;;;4898211;29;20429;-70
2022/01/12 16:18:03;;;;;;;11.37;7.97;;;0.90;96.30;;;;;;4897670;29;20169;-70
2022/01/12 16:20:30;;;;;;;10.23;7.07;;;0.90;96.30;;;;;;4898078;29;20417;-71
2022/01/12 16:22:56;;;;;;;12.43;7.40;;;0.90;96.30;;;;;;4903631;29;20936;-71
2022/01/12 16:25:22;;;;;;;12.10;8.47;;;0.90;96.30;;;;;;4902143;29;20425;-71
2022/01/12 16:27:48;;;;;;;15.27;9.87;;;0.90;96.30;;;;;;4897810;29;20428;-71
2022/01/12 16:30:19;;;;;;;13.07;9.57;;;0.90;96.30;;;;;;4897591;29;20417;-71
2022/01/12 16:32:44;;;;;;;15.63;8.20;;;0.90;96.30;;;;;;4897755;29;20181;-72
2022/01/12 16:35:11;;;;;;;9.80;7.37;;;0.90;96.30;;;;;;4903039;29;20432;-73
2022/01/12 16:37:37;;;;;;;11.70;7.17;;;0.90;96.30;;;;;;4916591;29;20593;-76
2022/01/12 16:40:07;;;;;;;12.47;7.30;;;0.80;96.30;;;;;;4908978;29;20441;-75
2022/01/12 16:42:32;;;;;;;11.57;8.20;;;0.80;96.30;;;;;;4891613;29;20222;-74
2022/01/12 16:44:58;;;;;;;12.60;8.00;;;0.80;96.30;;;;;;4915620;29;20901;-72
2022/01/12 16:47:23;;;;;;;11.40;7.93;;;0.70;96.30;;;;;;4916503;29;20188;-74
2022/01/12 16:49:50;;;;;;;12.30;8.87;;;0.80;96.30;;;;;;4899296;29;20180;-72
2022/01/12 16:52:16;;;;;;;13.83;7.87;;;0.80;96.30;;;;;;4893794;29;20568;-74
2022/01/12 16:54:42;;;;;;;10.10;7.13;;;0.80;96.30;;;;;;4889484;29;20507;-74
2022/01/12 16:57:07;;;;;;;13.60;7.80;;;0.80;96.30;;;;;;4888942;29;20829;-74
2022/01/12 16:59:33;;;;;;;14.00;8.27;;;0.80;96.30;;;;;;4904515;29;20192;-73
2022/01/12 17:01:58;;;;;;;13.63;9.20;;;0.80;96.30;;;;;;4884814;29;20208;-74
2022/01/12 17:04:24;;;;;;;12.17;9.27;;;0.80;96.30;;;;;;4896623;29;20192;-74
2022/01/12 17:06:51;;;;;;;13.40;8.10;;;0.80;96.30;;;;;;4906257;29;20236;-75
2022/01/12 17:09:17;;;;;;;13.83;8.73;;;0.70;96.30;;;;;;4901788;29;20434;-75
2022/01/12 17:11:43;;;;;;;13.17;8.30;;;0.80;96.30;;;;;;4896886;29;20489;-75
2022/01/12 17:14:08;;;;;;;14.87;8.97;;;0.80;96.30;;;;;;4914866;29;20188;-76
2022/01/12 17:16:34;;;;;;;10.07;7.90;;;0.80;96.30;;;;;;4915819;29;20180;-75
2022/01/12 17:19:07;;;;;;;9.63;7.23;;;0.80;96.30;;;;;;4912811;29;20216;-73
2022/01/12 17:21:33;;;;;;;14.30;7.87;;;0.80;96.30;;;;;;4915938;29;20559;-74
2022/01/12 17:24:06;;;;;;;14.20;8.73;;;0.70;96.30;;;;;;4915383;29;20416;-71
2022/01/12 17:26:38;;;;;;;12.13;8.47;;;0.70;96.30;;;;;;4915882;29;20176;-71
2022/01/12 17:29:05;;;;;;;18.50;8.77;;;0.70;96.30;;;;;;4915947;29;20515;-74
2022/01/12 17:31:33;;;;;;;11.93;8.40;;;0.70;96.30;;;;;;4915521;29;20460;-71
2022/01/12 17:34:00;;;;;;;12.83;8.30;;;0.60;96.30;;;;;;4915396;29;20796;-71
2022/01/12 17:36:44;;;;;;;15.77;9.57;;;0.70;96.30;;;;;;4899951;29;20932;-71
2022/01/12 17:39:13;;;;;;;11.00;8.60;;;0.70;96.30;;;;;;4896519;29;20818;-72
2022/01/12 17:41:44;;;;;;;14.13;9.03;;;0.70;96.30;;;;;;4896819;29;20433;-71
2022/01/12 17:44:09;;;;;;;14.33;9.00;;;0.70;96.30;;;;;;4898103;29;20424;-71
2022/01/12 17:46:37;;;;;;;12.90;9.80;;;0.70;96.30;;;;;;4915711;29;20933;-71
2022/01/12 17:49:06;;;;;;;16.63;9.50;;;0.60;96.30;;;;;;4915611;29;20203;-72
2022/01/12 17:51:31;;;;;;;14.30;8.97;;;0.60;96.30;;;;;;4915631;29;20844;-71
2022/01/12 17:53:57;;;;;;;16.70;9.27;;;0.60;96.30;;;;;;4915147;29;20416;-71
2022/01/12 17:56:22;;;;;;;13.37;9.53;;;0.70;96.30;;;;;;4915551;29;20645;-73
2022/01/12 17:58:48;;;;;;;13.43;10.20;;;0.70;96.30;;;;;;4898502;29;20240;-72
2022/01/12 18:01:16;;;;;;;17.23;9.87;;;0.70;96.30;;;;;;4912160;29;20586;-71
2022/01/12 18:03:41;;;;;;;20.57;9.03;;;0.60;96.30;;;;;;4899226;29;20583;-71
2022/01/12 18:06:08;;;;;;;15.83;9.50;;;0.60;96.30;;;;;;4909189;29;20428;-70
2022/01/12 18:08:34;;;;;;;15.73;10.00;;;0.70;96.30;;;;;;4909936;29;20172;-70
2022/01/12 18:23:56;;;;;;;15.40;12.03;;;0.70;96.30;;;;;;5324492;23;20973;-73
2022/01/12 18:26:22;;;;;;;19.93;10.97;;;0.70;96.30;;;;;;4899557;29;20416;-72
2022/01/12 18:28:48;;;;;;;19.33;11.30;;;0.70;96.30;;;;;;4899894;29;20181;-71
2022/01/12 18:31:13;;;;;;;18.70;12.57;;;0.70;96.30;;;;;;4907674;29;20665;-71
2022/01/12 18:33:39;;;;;;;19.33;12.93;;;0.60;96.30;;;;;;4917692;29;20523;-72
2022/01/12 18:36:08;;;;;;;27.37;12.90;;;0.60;96.30;;;;;;4923570;29;20210;-72
2022/01/12 18:38:36;;;;;;;18.27;11.73;;;0.60;96.30;;;;;;4919220;29;20198;-72
2022/01/12 18:41:03;;;;;;;29.87;15.30;;;0.60;96.30;;;;;;4933152;29;20448;-72
2022/01/12 18:43:28;;;;;;;22.90;14.27;;;0.60;96.30;;;;;;4918529;29;20499;-70
2022/01/12 18:45:54;;;;;;;20.80;14.00;;;0.60;96.30;;;;;;4918739;29;20820;-72
2022/01/12 18:48:20;;;;;;;22.40;14.20;;;0.60;96.30;;;;;;4918456;29;20713;-75
2022/01/12 18:50:46;;;;;;;24.63;14.07;;;0.60;96.30;;;;;;4918482;29;20207;-70
2022/01/12 18:53:11;;;;;;;22.17;15.03;;;0.60;96.30;;;;;;4899679;29;20209;-72
2022/01/12 18:55:37;;;;;;;25.20;14.23;;;0.60;96.30;;;;;;4899368;29;20431;-72
2022/01/12 18:58:02;;;;;;;21.17;14.80;;;0.60;96.30;;;;;;4899532;29;20169;-71
2022/01/12 19:00:28;;;;;;;24.47;16.20;;;0.50;96.30;;;;;;4899501;29;20173;-72
2022/01/12 19:02:54;;;;;;;24.83;15.23;;;0.50;96.30;;;;;;4899471;29;20188;-72
2022/01/12 19:05:19;;;;;;;25.03;15.17;;;0.50;96.30;;;;;;4905096;29;20428;-70
2022/01/12 19:07:45;;;;;;;22.63;13.30;;;0.50;96.30;;;;;;4906825;29;20210;-70
2022/01/12 19:10:11;;;;;;;25.90;14.47;;;0.50;96.30;;;;;;4911523;29;20188;-72
2022/01/12 19:12:37;;;;;;;19.70;12.90;;;0.50;96.30;;;;;;4917957;29;20726;-73
2022/01/12 19:15:04;;;;;;;17.30;12.23;;;0.50;96.30;;;;;;4917859;29;20416;-70
2022/01/12 19:17:30;;;;;;;18.67;11.77;;;0.50;96.30;;;;;;4917593;29;20181;-70
2022/01/12 19:19:56;;;;;;;17.90;12.63;;;0.50;96.30;;;;;;4918054;29;20844;-70
2022/01/12 19:22:27;;;;;;;23.87;14.20;;;0.60;96.30;;;;;;4917813;29;20515;-70
2022/01/12 19:24:52;;;;;;;20.90;13.03;;;0.60;96.30;;;;;;4917676;29;20192;-70
2022/01/12 19:27:18;;;;;;;20.10;12.40;;;0.50;96.30;;;;;;4904026;29;20814;-70
2022/01/12 19:29:44;;;;;;;18.23;12.13;;;0.60;96.30;;;;;;4898835;29;20221;-70
2022/01/12 19:32:09;;;;;;;24.23;13.93;;;0.60;96.30;;;;;;4898788;29;20761;-70
2022/01/12 19:34:35;;;;;;;21.67;14.07;;;0.50;96.30;;;;;;4912129;29;20804;-70
2022/01/12 19:37:01;;;;;;;26.00;14.63;;;0.50;96.30;;;;;;4898867;29;20181;-70
2022/01/12 19:39:26;;;;;;;21.10;13.73;;;0.60;96.30;;;;;;4898807;29;20646;-70
2022/01/12 19:41:52;;;;;;;29.73;15.33;;;0.60;96.30;;;;;;4898696;29;20220;-71
2022/01/12 19:44:17;;;;;;;22.87;14.90;;;0.60;96.30;;;;;;4910169;29;20267;-72
2022/01/12 19:46:43;;;;;;;21.10;14.73;;;0.50;96.30;;;;;;4917573;29;20176;-73
2022/01/12 19:49:09;;;;;;;22.23;14.30;;;0.50;96.30;;;;;;4906825;29;20556;-73
2022/01/12 19:51:36;;;;;;;23.50;15.30;;;0.50;96.30;;;;;;4906655;29;20570;-73
2022/01/12 19:54:21;;;;;;;29.70;16.20;;;0.50;96.30;;;;;;4903571;29;20185;-73
2022/01/12 19:56:53;;;;;;;20.83;14.20;;;0.60;96.30;;;;;;4896780;29;20425;-73
2022/01/12 19:59:25;;;;;;;20.20;14.60;;;0.50;96.30;;;;;;4898187;29;20500;-72
2022/01/12 20:01:51;;;;;;;22.23;14.40;;;0.50;96.30;;;;;;4898457;29;20566;-73
2022/01/12 20:04:18;;;;;;;25.93;14.97;;;0.60;96.30;;;;;;4903781;29;20428;-72
2022/01/12 20:06:45;;;;;;;22.67;11.60;;;0.60;96.30;;;;;;4908954;29;20226;-73
2022/01/12 20:09:25;;;;;;;15.73;11.50;;;0.50;96.30;;;;;;4903293;29;20853;-72
2022/01/12 20:11:53;;;;;;;22.20;13.67;;;0.50;96.30;;;;;;4905873;29;20469;-72
2022/01/12 20:14:19;;;;;;;25.20;14.00;;;0.50;96.30;;;;;;4905795;29;20439;-72
2022/01/12 20:16:52;;;;;;;19.70;12.20;;;0.50;96.30;;;;;;4897722;29;20465;-72
2022/01/12 20:22:03;;;;;;;18.77;12.30;;;0.50;96.30;;;;;;4917362;29;20469;-71
2022/01/12 20:24:32;;;;;;;21.40;12.70;;;0.50;96.30;;;;;;4912675;29;20433;-71
2022/01/12 20:27:00;;;;;;;20.43;12.10;;;0.50;96.30;;;;;;4902217;29;20713;-70
2022/01/12 20:29:28;;;;;;;21.40;11.50;;;0.50;96.30;;;;;;4896441;29;20453;-71
2022/01/12 20:31:54;;;;;;;17.30;11.30;;;0.50;96.30;;;;;;4897725;29;20483;-72
2022/01/12 20:34:20;;;;;;;17.70;12.50;;;0.50;96.30;;;;;;4897279;29;20409;-72
2022/01/12 20:36:46;;;;;;;14.40;10.20;;;0.50;96.30;;;;;;4916669;29;20417;-71
2022/01/12 20:39:12;;;;;;;17.63;12.60;;;0.60;96.30;;;;;;4916740;29;20424;-72
2022/01/12 20:41:38;;;;;;;20.00;12.03;;;0.60;96.30;;;;;;4916372;29;20925;-71
2022/01/12 20:44:05;;;;;;;23.97;12.60;;;0.60;96.30;;;;;;4914503;29;20177;-72
2022/01/12 20:46:33;;;;;;;13.53;10.50;;;0.60;96.30;;;;;;4915598;29;20199;-71
2022/01/12 20:49:03;;;;;;;16.27;9.73;;;0.60;96.30;;;;;;4913439;29;20425;-72
2022/01/12 20:51:29;;;;;;;13.93;9.60;;;0.60;96.30;;;;;;4897051;29;20880;-72
2022/01/12 20:53:55;;;;;;;17.50;9.80;;;0.60;96.30;;;;;;4897069;29;20553;-71
2022/01/12 20:56:23;;;;;;;18.83;11.07;;;0.60;96.30;;;;;;4895908;29;20195;-71
2022/01/12 20:58:49;;;;;;;16.70;10.60;;;0.60;96.30;;;;;;4896036;29;20181;-71
2022/01/12 21:01:16;;;;;;;18.23;10.50;;;0.60;96.30;;;;;;4895937;29;20447;-71
2022/01/12 21:03:42;;;;;;;17.13;10.83;;;0.60;96.30;;;;;;4896781;29;20902;-72
2022/01/12 21:06:08;;;;;;;15.33;10.80;;;0.70;96.30;;;;;;4907831;29;20436;-73
2022/01/12 21:08:36;;;;;;;15.10;10.33;;;0.60;96.30;;;;;;4914940;29;20503;-74